Rockville Centre, New York
Current Conditions -  °F | °C
As of 1:51 PM on Saturday 25 Oct 2014 (Local Time) from KJFK Reporting Station
Scattered Clouds Scattered Clouds  
Wind Chill: 65°   Ceiling: Unl
Heat Index: 65°   Visibility: 10mi
Dew Point: 41°   Wind: 14mph
Humidity: 42%   Direction: 230°SW
Pressure: 29.74"   Gusts: NA
Location:  40.66°N, 73.64°W
Report Text: KJFK 251751Z 23012KT 10SM SCT260 18/05 A2974 RMK AO2 SLP070 T01830050 10183 20106 58038
Loading
Personal Weather Stations






























Interactive Weather Map
Tropical Storm Tracking
New forecast layout! Learn more

10-Day Weather Forecast

Advertisements
Track Severe Weather on mobile